createdAt,value
2018-04-24T00:02:20.208Z,12.61
2018-04-24T00:04:47.783Z,12.40
2018-04-24T00:07:15.359Z,12.31
2018-04-24T00:09:43.215Z,12.27
2018-04-24T00:12:10.799Z,12.12
2018-04-24T00:14:38.388Z,12.00
2018-04-24T00:17:06.008Z,11.96
2018-04-24T00:19:33.595Z,12.01
2018-04-24T00:22:01.175Z,11.88
2018-04-24T00:24:28.796Z,11.93
2018-04-24T00:26:56.377Z,11.89
2018-04-24T00:29:23.963Z,12.19
2018-04-24T00:31:51.595Z,12.09
2018-04-24T00:34:19.222Z,11.97
2018-04-24T00:36:46.786Z,12.05
2018-04-24T00:39:14.392Z,12.27
2018-04-24T00:41:41.973Z,12.08
2018-04-24T00:44:09.551Z,11.90
2018-04-24T00:46:37.162Z,12.00
2018-04-24T00:49:04.746Z,11.89
2018-04-24T00:51:32.334Z,11.80
2018-04-24T00:53:59.951Z,12.03
2018-04-24T00:56:27.808Z,11.88
2018-04-24T00:58:55.355Z,11.70
2018-04-24T01:01:22.997Z,11.60
2018-04-24T01:03:50.584Z,11.92
2018-04-24T01:06:18.163Z,12.00
2018-04-24T01:08:45.770Z,11.82
2018-04-24T01:11:13.338Z,11.74
2018-04-24T01:13:40.923Z,11.90
2018-04-24T01:16:08.529Z,11.77
2018-04-24T01:18:36.117Z,11.69
2018-04-24T01:21:03.747Z,11.67
2018-04-24T01:23:31.410Z,11.61
2018-04-24T01:25:59.075Z,11.59
2018-04-24T01:28:26.734Z,11.44
2018-04-24T01:30:54.356Z,11.38
2018-04-24T01:33:21.975Z,11.37
2018-04-24T01:35:49.739Z,11.35
2018-04-24T01:38:17.360Z,11.19
2018-04-24T01:40:45.047Z,11.07
2018-04-24T01:43:12.626Z,10.94
2018-04-24T01:45:40.250Z,10.88
2018-04-24T01:48:08.017Z,10.97
2018-04-24T01:50:35.710Z,11.22
2018-04-24T01:53:03.319Z,11.38
2018-04-24T01:55:30.898Z,11.36
2018-04-24T01:57:58.484Z,11.41
2018-04-24T02:00:26.095Z,11.41
2018-04-24T02:02:53.702Z,11.37
2018-04-24T02:05:21.475Z,11.42
2018-04-24T02:07:49.087Z,11.40
2018-04-24T02:10:16.708Z,11.16
2018-04-24T02:12:44.288Z,10.93
2018-04-24T02:15:11.912Z,10.82
2018-04-24T02:17:39.512Z,10.66
2018-04-24T02:20:07.108Z,10.55
2018-04-24T02:22:34.972Z,10.48
2018-04-24T02:25:02.692Z,10.62
2018-04-24T02:27:30.433Z,10.64
2018-04-24T02:29:58.117Z,10.86
2018-04-24T02:32:25.736Z,10.88
2018-04-24T02:34:53.425Z,11.17
2018-04-24T02:37:21.352Z,11.17
2018-04-24T02:39:49.159Z,10.91
2018-04-24T02:42:16.825Z,10.67
2018-04-24T02:44:44.473Z,10.77
2018-04-24T02:47:12.047Z,10.75
2018-04-24T02:49:39.631Z,10.90
2018-04-24T02:52:07.540Z,10.86
2018-04-24T02:54:35.319Z,10.68
2018-04-24T02:57:03.000Z,10.59
2018-04-24T02:59:30.860Z,10.43
2018-04-24T03:01:58.448Z,10.38
2018-04-24T03:04:26.028Z,10.33
2018-04-24T03:06:53.978Z,10.38
2018-04-24T03:09:21.564Z,10.31
2018-04-24T03:11:49.189Z,10.35
2018-04-24T03:14:16.790Z,10.44
2018-04-24T03:16:44.368Z,10.31
2018-04-24T03:19:11.948Z,10.27
2018-04-24T03:21:39.596Z,10.53
2018-04-24T03:24:07.176Z,10.62
2018-04-24T03:26:34.751Z,10.94
2018-04-24T03:29:02.383Z,10.66
2018-04-24T03:31:29.968Z,10.64
2018-04-24T03:33:57.556Z,10.62
2018-04-24T03:36:25.184Z,10.58
2018-04-24T03:38:52.777Z,10.63
2018-04-24T03:41:20.367Z,10.74
2018-04-24T03:43:47.993Z,10.74
2018-04-24T03:46:15.567Z,10.87
2018-04-24T03:48:43.161Z,11.12
2018-04-24T03:51:10.757Z,11.46
2018-04-24T03:53:38.324Z,12.48
2018-04-24T03:56:05.906Z,13.49
2018-04-24T03:58:33.530Z,14.62
2018-04-24T04:01:01.116Z,15.47
2018-04-24T04:03:28.708Z,16.24
2018-04-24T04:05:56.324Z,16.92
2018-04-24T04:08:23.976Z,17.44
2018-04-24T04:10:51.561Z,17.85
2018-04-24T04:13:19.175Z,18.15
2018-04-24T04:15:46.756Z,17.89
2018-04-24T04:18:26.202Z,17.68
2018-04-24T04:21:05.429Z,17.55
2018-04-24T04:23:44.642Z,17.33
2018-04-24T04:26:12.220Z,16.97
2018-04-24T04:28:40.707Z,16.32
2018-04-24T04:31:08.329Z,16.26
2018-04-24T04:33:35.921Z,16.61
2018-04-24T04:36:03.496Z,17.34
2018-04-24T04:38:31.103Z,18.37
2018-04-24T04:40:58.685Z,19.50
2018-04-24T04:43:26.249Z,20.41
2018-04-24T04:45:53.867Z,21.38
2018-04-24T04:48:21.446Z,21.78
2018-04-24T04:50:49.031Z,23.16
2018-04-24T04:53:16.658Z,23.90
2018-04-24T04:55:44.245Z,24.96
2018-04-24T04:58:11.838Z,24.99
2018-04-24T05:00:39.459Z,25.89
2018-04-24T05:03:07.079Z,26.25
2018-04-24T05:05:34.651Z,26.32
2018-04-24T05:08:02.256Z,26.56
2018-04-24T05:10:29.837Z,26.54
2018-04-24T05:12:57.416Z,27.43
2018-04-24T05:15:25.043Z,28.21
2018-04-24T05:17:52.617Z,28.37
2018-04-24T05:20:20.205Z,28.95
2018-04-24T05:22:47.821Z,28.86
2018-04-24T05:25:15.456Z,29.59
2018-04-24T05:27:43.072Z,29.14
2018-04-24T05:30:10.701Z,29.37
2018-04-24T05:32:38.284Z,29.21
2018-04-24T05:35:05.864Z,28.98
2018-04-24T05:37:33.494Z,29.00
2018-04-24T05:40:01.080Z,28.88
2018-04-24T05:42:28.663Z,30.37
2018-04-24T05:44:56.379Z,30.27
2018-04-24T05:47:23.960Z,30.59
2018-04-24T05:49:51.717Z,29.65
2018-04-24T05:52:19.343Z,31.10
2018-04-24T05:54:46.915Z,31.95
2018-04-24T05:57:14.487Z,31.09
2018-04-24T05:59:42.092Z,31.62
2018-04-24T06:02:09.661Z,31.96
2018-04-24T06:04:37.253Z,32.20
2018-04-24T06:07:04.863Z,32.06
2018-04-24T06:09:32.452Z,31.55
2018-04-24T06:12:00.052Z,31.90
2018-04-24T06:14:27.677Z,32.33
2018-04-24T06:16:55.258Z,32.79
2018-04-24T06:19:22.892Z,33.30
2018-04-24T06:21:50.514Z,34.12
2018-04-24T06:24:18.096Z,34.75
2018-04-24T06:26:45.677Z,34.18
2018-04-24T06:29:13.297Z,33.93
2018-04-24T06:31:40.872Z,33.82
2018-04-24T06:34:08.471Z,33.59
2018-04-24T06:36:36.150Z,33.95
2018-04-24T06:39:03.843Z,34.85
2018-04-24T06:41:31.439Z,34.46
2018-04-24T06:43:59.050Z,34.80
2018-04-24T06:46:26.630Z,35.15
2018-04-24T06:48:54.215Z,35.06
2018-04-24T06:51:21.841Z,34.93
2018-04-24T06:53:49.470Z,35.23
2018-04-24T06:56:17.058Z,36.68
2018-04-24T06:58:44.685Z,36.67
2018-04-24T07:01:12.270Z,36.68
2018-04-24T07:03:39.848Z,37.36
2018-04-24T07:06:07.483Z,37.18
2018-04-24T07:08:35.067Z,37.48
2018-04-24T07:11:02.664Z,37.78
2018-04-24T07:13:30.335Z,37.97
2018-04-24T07:15:57.930Z,37.01
2018-04-24T07:18:25.514Z,36.45
2018-04-24T07:20:53.137Z,37.41
2018-04-24T07:23:20.715Z,37.01
2018-04-24T07:25:48.298Z,36.96
2018-04-24T07:28:15.975Z,37.18
2018-04-24T07:30:43.556Z,37.62
2018-04-24T07:33:11.139Z,37.41
2018-04-24T07:35:38.757Z,36.71
2018-04-24T07:38:06.348Z,37.45
2018-04-24T07:40:33.933Z,37.71
2018-04-24T07:43:01.552Z,38.41
2018-04-24T07:45:29.146Z,37.55
2018-04-24T07:47:56.725Z,37.43
2018-04-24T07:50:24.340Z,37.30
2018-04-24T07:52:51.926Z,38.14
2018-04-24T07:55:19.504Z,38.55
2018-04-24T07:57:47.128Z,38.45
2018-04-24T08:00:14.711Z,39.23
2018-04-24T08:02:42.283Z,38.68
2018-04-24T08:05:09.911Z,39.52
2018-04-24T08:07:37.492Z,37.89
2018-04-24T08:10:05.104Z,37.59
2018-04-24T08:12:32.726Z,38.56
2018-04-24T08:15:00.316Z,38.48
2018-04-24T08:17:27.970Z,38.74
2018-04-24T08:19:55.649Z,40.19
2018-04-24T08:22:23.332Z,40.17
2018-04-24T08:24:50.930Z,40.99
2018-04-24T08:27:18.551Z,40.68
2018-04-24T08:29:46.140Z,40.63
2018-04-24T08:32:13.729Z,40.14
2018-04-24T08:34:41.359Z,39.69
2018-04-24T08:37:08.936Z,40.64
2018-04-24T08:39:36.519Z,40.43
2018-04-24T08:42:04.132Z,40.53
2018-04-24T08:44:31.713Z,40.64
2018-04-24T08:46:59.283Z,39.38
2018-04-24T08:49:26.898Z,39.45
2018-04-24T08:51:54.499Z,40.26
2018-04-24T08:54:22.101Z,40.33
2018-04-24T08:56:49.727Z,39.19
2018-04-24T08:59:17.317Z,35.89
2018-04-24T09:01:44.904Z,36.35
2018-04-24T09:04:12.555Z,37.34
2018-04-24T09:06:40.134Z,38.48
2018-04-24T09:09:07.706Z,39.05
2018-04-24T09:11:35.320Z,39.18
2018-04-24T09:14:02.955Z,39.09
2018-04-24T09:16:30.524Z,37.99
2018-04-24T09:18:58.155Z,39.24
2018-04-24T09:21:25.759Z,39.31
2018-04-24T09:23:53.695Z,38.64
2018-04-24T09:26:21.393Z,37.41
2018-04-24T09:28:48.982Z,37.71
2018-04-24T09:31:16.603Z,38.57
2018-04-24T09:33:44.245Z,38.81
2018-04-24T09:36:11.828Z,37.40
2018-04-24T09:38:39.413Z,37.48
2018-04-24T09:41:07.024Z,37.02
2018-04-24T09:43:34.604Z,36.47
2018-04-24T09:46:02.239Z,36.63
2018-04-24T09:48:29.840Z,37.50
2018-04-24T09:50:57.414Z,37.38
2018-04-24T09:53:25.007Z,38.21
2018-04-24T09:55:52.631Z,38.44
2018-04-24T09:58:20.224Z,39.07
2018-04-24T10:00:47.832Z,39.63
2018-04-24T10:03:15.464Z,39.64
2018-04-24T10:05:43.042Z,39.78
2018-04-24T10:08:10.621Z,39.93
2018-04-24T10:10:38.223Z,38.47
2018-04-24T10:13:05.877Z,38.39
2018-04-24T10:15:33.459Z,39.44
2018-04-24T10:18:01.168Z,40.06
2018-04-24T10:20:28.743Z,38.55
2018-04-24T10:22:56.335Z,38.38
2018-04-24T10:25:23.946Z,39.56
2018-04-24T10:27:51.519Z,38.52
2018-04-24T10:30:19.096Z,39.47
2018-04-24T10:32:46.703Z,39.22
2018-04-24T10:35:14.278Z,38.45
2018-04-24T10:37:41.860Z,39.82
2018-04-24T10:40:09.467Z,39.76
2018-04-24T10:42:37.059Z,38.90
2018-04-24T10:45:04.665Z,38.76
2018-04-24T10:47:32.280Z,39.18
2018-04-24T10:50:00.024Z,38.60
2018-04-24T10:52:27.663Z,38.53
2018-04-24T10:54:55.256Z,37.60
2018-04-24T10:57:22.821Z,39.08
2018-04-24T10:59:50.430Z,37.94
2018-04-24T11:02:18.033Z,37.08
2018-04-24T11:04:45.624Z,36.19
2018-04-24T11:07:13.208Z,35.86
2018-04-24T11:09:40.820Z,35.59
2018-04-24T11:12:08.416Z,35.80
2018-04-24T11:14:35.999Z,37.34
2018-04-24T11:17:03.640Z,38.06
2018-04-24T11:19:31.237Z,38.01
2018-04-24T11:21:58.819Z,39.58
2018-04-24T11:24:26.449Z,40.36
2018-04-24T11:26:54.039Z,39.74
2018-04-24T11:29:21.616Z,38.74
2018-04-24T11:31:49.228Z,38.95
2018-04-24T11:34:16.809Z,39.77
2018-04-24T11:36:44.452Z,39.40
2018-04-24T11:39:12.069Z,40.18
2018-04-24T11:41:39.726Z,38.52
2018-04-24T11:44:07.353Z,39.98
2018-04-24T11:46:34.970Z,40.51
2018-04-24T11:49:02.625Z,41.14
2018-04-24T11:51:30.183Z,41.47
2018-04-24T11:53:57.847Z,42.50
2018-04-24T11:56:25.409Z,43.04
2018-04-24T11:58:53.000Z,42.80
2018-04-24T12:01:20.856Z,41.58
2018-04-24T12:03:48.579Z,39.65
2018-04-24T12:06:16.148Z,39.41
2018-04-24T12:08:43.765Z,39.96
2018-04-24T12:11:11.337Z,40.08
2018-04-24T12:13:39.019Z,38.83
2018-04-24T12:16:06.623Z,38.82
2018-04-24T12:18:34.203Z,38.87
2018-04-24T12:21:01.784Z,38.21
2018-04-24T12:23:29.399Z,38.25
2018-04-24T12:25:56.991Z,38.70
2018-04-24T12:28:24.581Z,38.44
2018-04-24T12:30:52.187Z,37.67
2018-04-24T12:33:19.760Z,37.44
2018-04-24T12:35:47.342Z,37.57
2018-04-24T12:38:14.988Z,36.95
2018-04-24T12:40:42.569Z,36.76
2018-04-24T12:43:10.149Z,36.13
2018-04-24T12:45:37.769Z,36.86
2018-04-24T12:48:05.341Z,36.68
2018-04-24T12:50:32.915Z,36.94
2018-04-24T12:53:00.510Z,37.41
2018-04-24T12:55:28.081Z,38.08
2018-04-24T12:57:55.677Z,37.73
2018-04-24T13:00:23.310Z,37.41
2018-04-24T13:02:50.888Z,36.39
2018-04-24T13:05:18.481Z,35.06
2018-04-24T13:07:46.098Z,33.62
2018-04-24T13:10:13.680Z,33.40
2018-04-24T13:12:41.262Z,32.46
2018-04-24T13:15:09.029Z,32.36
2018-04-24T13:17:36.617Z,32.78
2018-04-24T13:20:04.204Z,32.41
2018-04-24T13:22:31.806Z,32.51
2018-04-24T13:24:59.361Z,32.35
2018-04-24T13:27:26.946Z,32.11
2018-04-24T13:29:54.564Z,31.95
2018-04-24T13:32:22.144Z,32.02
2018-04-24T13:34:49.722Z,31.63
2018-04-24T13:37:17.475Z,31.91
2018-04-24T13:39:45.037Z,31.97
2018-04-24T13:42:12.731Z,31.88
2018-04-24T13:44:40.258Z,31.64
2018-04-24T13:47:08.007Z,31.59
2018-04-24T13:49:35.583Z,31.31
2018-04-24T13:52:03.188Z,31.11
2018-04-24T13:54:30.760Z,31.04
2018-04-24T13:56:58.317Z,31.04
2018-04-24T13:59:25.915Z,31.01
2018-04-24T14:01:53.520Z,30.73
2018-04-24T14:04:21.084Z,30.90
2018-04-24T14:06:48.677Z,30.84
2018-04-24T14:09:16.279Z,30.78
2018-04-24T14:11:43.863Z,30.62
2018-04-24T14:14:11.499Z,30.72
2018-04-24T14:16:39.064Z,30.65
2018-04-24T14:19:06.805Z,30.69
2018-04-24T14:21:34.441Z,30.65
2018-04-24T14:24:02.037Z,30.64
2018-04-24T14:26:29.621Z,30.64
2018-04-24T14:28:57.233Z,30.53
2018-04-24T14:31:24.813Z,30.51
2018-04-24T14:33:52.439Z,30.33
2018-04-24T14:36:20.049Z,30.40
2018-04-24T14:38:47.628Z,30.39
2018-04-24T14:44:00.919Z,30.33
2018-04-24T14:46:35.700Z,30.40
2018-04-24T14:49:04.900Z,30.09
2018-04-24T14:51:35.648Z,29.98
2018-04-24T14:56:43.964Z,29.94
2018-04-24T14:59:17.598Z,29.97
2018-04-24T15:04:24.290Z,29.72
2018-04-24T15:06:54.361Z,29.77
2018-04-24T15:09:23.107Z,29.72
2018-04-24T15:11:51.679Z,29.60
2018-04-24T15:14:21.379Z,29.55
2018-04-24T15:16:50.818Z,29.56
2018-04-24T15:19:23.628Z,29.55
2018-04-24T15:21:52.330Z,29.52
2018-04-24T15:24:20.966Z,29.46
2018-04-24T15:26:50.925Z,29.38
2018-04-24T15:29:22.485Z,29.29
2018-04-24T15:31:50.070Z,29.24
2018-04-24T15:34:17.664Z,29.20
2018-04-24T15:36:45.229Z,29.15
2018-04-24T15:39:12.861Z,29.13
2018-04-24T15:41:40.447Z,29.00
2018-04-24T15:44:08.039Z,28.98
2018-04-24T15:46:35.660Z,28.94
2018-04-24T15:49:03.248Z,28.89
2018-04-24T15:51:30.832Z,28.74
2018-04-24T15:53:58.453Z,28.72
2018-04-24T15:56:26.035Z,28.60
2018-04-24T15:58:53.600Z,28.58
2018-04-24T16:01:21.224Z,28.51
2018-04-24T16:03:48.808Z,28.40
2018-04-24T16:06:16.385Z,28.28
2018-04-24T16:08:43.989Z,28.21
2018-04-24T16:11:11.569Z,28.13
2018-04-24T16:13:39.154Z,28.03
2018-04-24T16:16:06.758Z,27.86
2018-04-24T16:18:34.382Z,27.71
2018-04-24T16:21:01.968Z,27.58
2018-04-24T16:23:29.579Z,27.47
2018-04-24T16:25:57.176Z,27.32
2018-04-24T16:28:24.751Z,27.16
2018-04-24T16:30:52.409Z,27.04
2018-04-24T16:33:19.962Z,26.78
2018-04-24T16:35:47.592Z,26.63
2018-04-24T16:38:15.195Z,26.43
2018-04-24T16:40:42.804Z,26.23
2018-04-24T16:43:10.380Z,26.06
2018-04-24T16:45:37.991Z,25.86
2018-04-24T16:48:05.669Z,25.62
2018-04-24T16:50:33.255Z,25.44
2018-04-24T16:53:00.877Z,25.22
2018-04-24T16:55:28.464Z,24.97
2018-04-24T16:57:56.037Z,24.74
2018-04-24T17:00:23.687Z,24.51
2018-04-24T17:02:51.265Z,24.37
2018-04-24T17:05:18.837Z,24.17
2018-04-24T17:07:46.444Z,24.01
2018-04-24T17:10:14.025Z,23.78
2018-04-24T17:12:41.627Z,23.67
2018-04-24T17:15:09.227Z,23.45
2018-04-24T17:17:36.801Z,23.27
2018-04-24T17:20:04.425Z,23.14
2018-04-24T17:22:32.044Z,22.99
2018-04-24T17:24:59.617Z,22.77
2018-04-24T17:27:27.194Z,22.63
2018-04-24T17:29:54.823Z,22.70
2018-04-24T17:32:22.415Z,22.61
2018-04-24T17:34:50.164Z,22.57
2018-04-24T17:37:17.820Z,22.48
2018-04-24T17:39:45.392Z,22.37
2018-04-24T17:42:12.977Z,22.37
2018-04-24T17:44:40.604Z,22.45
2018-04-24T17:47:08.283Z,22.63
2018-04-24T17:49:36.032Z,22.64
2018-04-24T17:52:03.654Z,22.74
2018-04-24T17:54:31.249Z,22.72
2018-04-24T17:56:58.824Z,22.72
2018-04-24T17:59:26.426Z,22.59
2018-04-24T18:01:54.006Z,22.46
2018-04-24T18:04:21.573Z,22.63
2018-04-24T18:06:49.338Z,22.70
2018-04-24T18:09:17.049Z,22.71
2018-04-24T18:11:44.709Z,22.63
2018-04-24T18:14:12.383Z,22.61
2018-04-24T18:16:39.940Z,22.65
2018-04-24T18:19:07.696Z,22.62
2018-04-24T18:21:35.384Z,22.46
2018-04-24T18:24:03.058Z,22.45
2018-04-24T18:26:30.668Z,22.36
2018-04-24T18:28:58.363Z,22.39
2018-04-24T18:31:25.949Z,22.40
2018-04-24T18:33:53.514Z,22.43
2018-04-24T18:36:21.126Z,22.38
2018-04-24T18:38:48.701Z,22.36
2018-04-24T18:41:16.263Z,22.26
2018-04-24T18:43:43.909Z,22.27
2018-04-24T18:46:11.492Z,22.20
2018-04-24T18:48:39.056Z,22.17
2018-04-24T18:51:06.671Z,22.23
2018-04-24T18:53:34.249Z,22.29
2018-04-24T18:56:01.839Z,22.28
2018-04-24T18:58:29.451Z,22.33
2018-04-24T19:00:57.026Z,22.35
2018-04-24T19:03:24.596Z,22.23
2018-04-24T19:05:52.559Z,22.22
2018-04-24T19:08:20.147Z,22.15
2018-04-24T19:10:47.789Z,22.09
2018-04-24T19:13:15.428Z,22.01
2018-04-24T19:15:43.106Z,22.01
2018-04-24T19:18:10.713Z,21.94
2018-04-24T19:20:38.326Z,21.91
2018-04-24T19:23:05.985Z,21.88
2018-04-24T19:25:39.166Z,21.87
2018-04-24T19:28:06.942Z,21.96
2018-04-24T19:30:34.507Z,21.88
2018-04-24T19:33:02.106Z,21.96
2018-04-24T19:35:29.704Z,21.92
2018-04-24T19:37:57.288Z,21.54
2018-04-24T19:40:30.319Z,21.17
2018-04-24T19:42:57.909Z,20.51
2018-04-24T19:45:25.501Z,19.71
2018-04-24T19:47:53.103Z,19.17
2018-04-24T19:50:20.671Z,18.68
2018-04-24T19:52:48.247Z,18.15
2018-04-24T19:55:21.394Z,17.97
2018-04-24T19:57:48.979Z,17.80
2018-04-24T20:00:16.605Z,17.78
2018-04-24T20:02:44.212Z,17.70
2018-04-24T20:05:11.792Z,17.44
2018-04-24T20:07:39.401Z,17.37
2018-04-24T20:10:07.028Z,17.36
2018-04-24T20:12:34.600Z,17.34
2018-04-24T20:15:02.174Z,17.43
2018-04-24T20:17:29.784Z,17.34
2018-04-24T20:19:57.357Z,17.35
2018-04-24T20:22:25.013Z,17.37
2018-04-24T20:24:52.645Z,17.28
2018-04-24T20:27:20.578Z,17.18
2018-04-24T20:29:48.159Z,17.30
2018-04-24T20:32:15.818Z,17.23
2018-04-24T20:34:43.436Z,17.16
2018-04-24T20:37:11.016Z,17.10
2018-04-24T20:39:38.628Z,17.12
2018-04-24T20:42:06.212Z,17.06
2018-04-24T20:44:33.804Z,17.02
2018-04-24T20:47:01.404Z,17.13
2018-04-24T20:49:29.027Z,17.13
2018-04-24T20:51:56.647Z,17.18
2018-04-24T20:54:24.295Z,17.13
2018-04-24T20:56:51.956Z,17.05
2018-04-24T20:59:19.588Z,17.02
2018-04-24T21:01:47.197Z,17.07
2018-04-24T21:04:14.803Z,17.07
2018-04-24T21:06:42.388Z,17.19
2018-04-24T21:09:10.005Z,17.19
2018-04-24T21:11:37.756Z,17.22
2018-04-24T21:14:05.340Z,17.40
2018-04-24T21:16:32.982Z,17.48
2018-04-24T21:19:00.606Z,17.38
2018-04-24T21:21:28.179Z,17.60
2018-04-24T21:23:55.753Z,17.68
2018-04-24T21:26:23.350Z,17.66
2018-04-24T21:28:50.922Z,17.64
2018-04-24T21:31:18.487Z,17.57
2018-04-24T21:33:46.094Z,17.56
2018-04-24T21:36:13.651Z,17.57
2018-04-24T21:38:41.209Z,17.57
2018-04-24T21:41:08.804Z,17.60
2018-04-24T21:43:36.371Z,17.60
2018-04-24T21:46:04.006Z,17.62
2018-04-24T21:48:31.667Z,17.55
2018-04-24T21:50:59.229Z,17.53
2018-04-24T21:53:26.977Z,17.52
2018-04-24T21:55:54.597Z,17.43
2018-04-24T21:58:22.198Z,17.45
2018-04-24T22:00:49.783Z,17.35
2018-04-24T22:03:17.390Z,17.25
2018-04-24T22:05:45.217Z,17.25
2018-04-24T22:08:12.973Z,17.14
2018-04-24T22:10:40.583Z,17.11
2018-04-24T22:13:08.302Z,17.07
2018-04-24T22:15:35.958Z,16.96
2018-04-24T22:18:03.626Z,16.96
2018-04-24T22:20:31.206Z,16.86
2018-04-24T22:22:58.940Z,16.84
2018-04-24T22:25:26.613Z,16.83
2018-04-24T22:27:54.196Z,16.80
2018-04-24T22:30:21.758Z,16.81
2018-04-24T22:32:49.525Z,16.70
2018-04-24T22:35:17.111Z,16.73
2018-04-24T22:37:44.700Z,16.72
2018-04-24T22:40:12.325Z,16.70
2018-04-24T22:42:40.033Z,16.79
2018-04-24T22:45:07.620Z,16.81
2018-04-24T22:47:35.232Z,16.72
2018-04-24T22:50:02.812Z,16.67
2018-04-24T22:52:30.389Z,16.70
2018-04-24T22:54:58.004Z,16.64
2018-04-24T22:57:25.588Z,16.56
2018-04-24T22:59:53.168Z,16.53
2018-04-24T23:02:21.167Z,16.47
2018-04-24T23:04:48.756Z,16.49
2018-04-24T23:07:16.338Z,16.48
2018-04-24T23:09:53.570Z,16.51
2018-04-24T23:12:32.724Z,16.58
2018-04-24T23:15:12.205Z,16.56
2018-04-24T23:17:51.469Z,16.47
2018-04-24T23:20:18.528Z,16.49
2018-04-24T23:22:46.139Z,16.51
2018-04-24T23:25:13.877Z,16.45
2018-04-24T23:27:41.587Z,16.48
2018-04-24T23:30:09.166Z,16.50
2018-04-24T23:32:36.753Z,16.47
2018-04-24T23:35:04.353Z,16.39
2018-04-24T23:37:31.917Z,16.44
2018-04-24T23:39:59.697Z,16.41
2018-04-24T23:42:27.340Z,16.39
2018-04-24T23:44:54.926Z,16.38
2018-04-24T23:47:22.524Z,16.40
2018-04-24T23:49:50.245Z,16.44
2018-04-24T23:52:17.837Z,16.40
2018-04-24T23:54:45.430Z,16.37
2018-04-24T23:57:13.053Z,16.38
2018-04-24T23:59:40.633Z,16.42
